createdAt,value
2022-09-14T00:01:53.824Z,100978.75
2022-09-14T00:04:22.056Z,100975.78
2022-09-14T00:06:49.686Z,100973.69
2022-09-14T00:09:18.222Z,100965.47
2022-09-14T00:11:47.197Z,100958.06
2022-09-14T00:14:14.784Z,100959.41
2022-09-14T00:16:43.023Z,100966.00
2022-09-14T00:19:16.360Z,100956.13
2022-09-14T00:21:43.914Z,100956.63
2022-09-14T00:24:12.286Z,100956.50
2022-09-14T00:26:39.772Z,100950.56
2022-09-14T00:29:08.653Z,100951.91
2022-09-14T00:31:37.189Z,100952.41
2022-09-14T00:34:05.300Z,100952.06
2022-09-14T00:36:35.164Z,100945.34
2022-09-14T00:39:02.665Z,100943.03
2022-09-14T00:41:32.202Z,100935.44
2022-09-14T00:44:00.625Z,100948.34
2022-09-14T00:46:30.572Z,100940.22
2022-09-14T00:49:00.628Z,100933.78
2022-09-14T00:51:28.934Z,100930.78
2022-09-14T00:53:56.783Z,100931.94
2022-09-14T00:56:24.387Z,100926.97
2022-09-14T00:58:52.907Z,100931.75
2022-09-14T01:01:20.746Z,100931.75
2022-09-14T01:03:49.786Z,100934.06
2022-09-14T01:06:20.625Z,100927.09
2022-09-14T01:08:57.670Z,100932.19
2022-09-14T01:11:33.859Z,100922.97
2022-09-14T01:14:05.657Z,100914.03
2022-09-14T01:16:36.963Z,100912.69
2022-09-14T01:19:11.488Z,100910.19
2022-09-14T01:21:42.017Z,100911.69
2022-09-14T01:24:17.516Z,100915.66
2022-09-14T01:26:59.361Z,100914.81
2022-09-14T01:29:30.871Z,100915.97
2022-09-14T01:32:01.131Z,100911.50
2022-09-14T01:34:32.340Z,100920.25
2022-09-14T01:37:03.403Z,100900.09
2022-09-14T01:39:32.621Z,100908.50
2022-09-14T01:42:01.424Z,100894.81
2022-09-14T01:44:32.480Z,100893.16
2022-09-14T01:47:02.649Z,100883.91
2022-09-14T01:49:32.796Z,100883.38
2022-09-14T01:52:02.652Z,100877.28
2022-09-14T01:54:32.404Z,100880.41
2022-09-14T01:57:02.853Z,100873.13
2022-09-14T01:59:33.119Z,100881.53
2022-09-14T02:02:03.842Z,100878.22
2022-09-14T02:04:35.469Z,100879.06
2022-09-14T02:07:03.545Z,100869.81
2022-09-14T02:09:31.124Z,100867.00
2022-09-14T02:12:00.753Z,100860.25
2022-09-14T02:14:28.769Z,100853.16
2022-09-14T02:16:57.855Z,100848.88
2022-09-14T02:19:27.048Z,100857.00
2022-09-14T02:21:54.557Z,100854.38
2022-09-14T02:24:22.114Z,100856.84
2022-09-14T02:26:51.548Z,100851.44
2022-09-14T02:29:19.162Z,100857.53
2022-09-14T02:31:56.548Z,100845.66
2022-09-14T02:34:30.790Z,100847.81
2022-09-14T02:37:01.999Z,100848.31
2022-09-14T02:39:36.600Z,100834.78
2022-09-14T02:42:10.048Z,100835.28
2022-09-14T02:44:42.913Z,100833.31
2022-09-14T02:47:15.908Z,100840.25
2022-09-14T02:49:49.377Z,100833.50
2022-09-14T02:52:19.537Z,100834.00
2022-09-14T02:54:51.490Z,100830.38
2022-09-14T02:57:18.978Z,100828.91
2022-09-14T02:59:46.521Z,100826.09
2022-09-14T03:02:14.172Z,100818.50
2022-09-14T03:04:42.216Z,100820.47
2022-09-14T03:07:11.085Z,100810.41
2022-09-14T03:09:38.581Z,100813.53
2022-09-14T03:12:06.195Z,100811.88
2022-09-14T03:14:37.735Z,100809.38
2022-09-14T03:17:05.325Z,100805.75
2022-09-14T03:19:32.852Z,100803.28
2022-09-14T03:22:00.345Z,100810.03
2022-09-14T03:24:29.188Z,100806.41
2022-09-14T03:26:56.752Z,100805.56
2022-09-14T03:29:24.322Z,100803.91
2022-09-14T03:31:51.928Z,100800.28
2022-09-14T03:34:19.460Z,100805.06
2022-09-14T03:36:46.958Z,100804.75
2022-09-14T03:39:14.474Z,100796.66
2022-09-14T03:41:43.344Z,100796.66
2022-09-14T03:44:11.119Z,100791.84
2022-09-14T03:46:38.740Z,100792.69
2022-09-14T03:49:06.809Z,100784.25
2022-09-14T03:51:34.622Z,100789.06
2022-09-14T03:54:02.300Z,100789.88
2022-09-14T03:56:29.847Z,100787.91
2022-09-14T03:58:58.673Z,100796.00
2022-09-14T04:01:26.231Z,100785.59
2022-09-14T04:03:53.806Z,100783.28
2022-09-14T04:06:21.441Z,100784.63
2022-09-14T04:08:49.328Z,100781.50
2022-09-14T04:11:17.906Z,100780.00
2022-09-14T04:13:46.006Z,100783.63
2022-09-14T04:16:15.469Z,100776.88
2022-09-14T04:18:43.317Z,100777.72
2022-09-14T04:21:15.217Z,100778.22
2022-09-14T04:24:10.146Z,100784.00
2022-09-14T04:26:31.033Z,100782.53
2022-09-14T04:28:58.784Z,100774.63
2022-09-14T04:31:27.785Z,100780.72
2022-09-14T04:33:56.351Z,100774.47
2022-09-14T04:36:28.054Z,100765.34
2022-09-14T04:38:57.054Z,100764.19
2022-09-14T04:41:25.061Z,100762.22
2022-09-14T04:43:53.388Z,100763.06
2022-09-14T04:46:21.939Z,100759.41
2022-09-14T04:48:51.360Z,100758.25
2022-09-14T04:51:20.250Z,100758.25
2022-09-14T04:53:49.906Z,100750.16
2022-09-14T04:56:18.303Z,100753.31
2022-09-14T04:58:51.259Z,100756.13
2022-09-14T05:01:20.414Z,100759.28
2022-09-14T05:03:48.282Z,100762.06
2022-09-14T05:06:18.048Z,100764.56
2022-09-14T05:08:45.864Z,100756.59
2022-09-14T05:11:15.258Z,100747.84
2022-09-14T05:13:47.523Z,100756.78
2022-09-14T05:16:18.213Z,100744.06
2022-09-14T05:18:46.138Z,100742.09
2022-09-14T05:21:14.813Z,100750.50
2022-09-14T05:23:43.861Z,100752.16
2022-09-14T05:26:11.329Z,100752.16
2022-09-14T05:28:39.150Z,100748.19
2022-09-14T05:31:07.325Z,100744.25
2022-09-14T05:33:35.524Z,100744.75
2022-09-14T05:36:03.758Z,100746.06
2022-09-14T05:38:31.626Z,100742.94
2022-09-14T05:41:00.469Z,100732.53
2022-09-14T05:43:28.851Z,100747.84
2022-09-14T05:45:56.512Z,100736.63
2022-09-14T05:48:24.048Z,100748.34
2022-09-14T05:50:58.471Z,100747.19
2022-09-14T05:53:25.949Z,100742.09
2022-09-14T05:56:01.413Z,100743.41
2022-09-14T05:58:28.887Z,100755.16
2022-09-14T06:00:56.491Z,100756.47
2022-09-14T06:03:24.036Z,100747.38
2022-09-14T06:05:54.641Z,100755.16
2022-09-14T06:08:22.764Z,100752.47
2022-09-14T06:10:50.368Z,100754.31
2022-09-14T06:13:19.218Z,100747.69
2022-09-14T06:15:46.796Z,100748.69
2022-09-14T06:18:14.267Z,100740.06
2022-09-14T06:20:50.199Z,100741.53
2022-09-14T06:23:17.758Z,100734.94
2022-09-14T06:25:45.485Z,100737.06
2022-09-14T06:28:13.010Z,100734.88
2022-09-14T06:30:44.776Z,100735.53
2022-09-14T06:33:12.289Z,100731.72
2022-09-14T06:35:40.989Z,100734.06
2022-09-14T06:38:08.486Z,100742.81
2022-09-14T06:40:36.425Z,100747.59
2022-09-14T06:43:03.972Z,100740.28
2022-09-14T06:45:32.383Z,100737.91
2022-09-14T06:48:01.228Z,100740.31
2022-09-14T06:50:28.750Z,100740.44
2022-09-14T06:52:56.271Z,100742.19
2022-09-14T06:55:23.839Z,100746.75
2022-09-14T06:57:51.385Z,100752.47
2022-09-14T07:00:19.203Z,100751.22
2022-09-14T07:02:47.215Z,100750.88
2022-09-14T07:05:19.189Z,100744.34
2022-09-14T07:07:46.692Z,100745.44
2022-09-14T07:10:14.301Z,100746.53
2022-09-14T07:12:41.772Z,100749.50
2022-09-14T07:15:09.850Z,100749.59
2022-09-14T07:17:37.412Z,100747.25
2022-09-14T07:20:05.420Z,100744.59
2022-09-14T07:22:35.232Z,100752.84
2022-09-14T07:25:02.696Z,100757.09
2022-09-14T07:27:30.263Z,100758.19
2022-09-14T07:29:57.788Z,100749.16
2022-09-14T07:32:25.348Z,100747.41
2022-09-14T07:34:52.977Z,100753.31
2022-09-14T07:37:20.485Z,100751.09
2022-09-14T07:39:49.468Z,100753.72
2022-09-14T07:42:17.045Z,100757.94
2022-09-14T07:44:44.560Z,100757.28
2022-09-14T07:47:12.085Z,100760.69
2022-09-14T07:49:39.607Z,100752.03
2022-09-14T07:52:07.180Z,100753.06
2022-09-14T07:54:35.515Z,100746.38
2022-09-14T07:57:04.557Z,100741.34
2022-09-14T07:59:36.141Z,100738.25
2022-09-14T08:02:06.311Z,100748.16
2022-09-14T08:04:34.745Z,100746.88
2022-09-14T08:07:03.096Z,100741.09
2022-09-14T08:09:30.591Z,100745.81
2022-09-14T08:11:58.151Z,100750.88
2022-09-14T08:14:27.274Z,100749.44
2022-09-14T08:16:54.804Z,100748.38
2022-09-14T08:19:22.764Z,100752.97
2022-09-14T08:21:51.067Z,100742.00
2022-09-14T08:24:19.293Z,100737.88
2022-09-14T08:26:47.042Z,100735.72
2022-09-14T08:29:14.681Z,100737.13
2022-09-14T08:31:45.444Z,100740.63
2022-09-14T08:34:13.688Z,100741.03
2022-09-14T08:36:41.829Z,100751.00
2022-09-14T08:39:10.487Z,100730.34
2022-09-14T08:41:39.849Z,100734.72
2022-09-14T08:44:14.607Z,100732.97
2022-09-14T08:46:45.029Z,100736.44
2022-09-14T08:49:14.470Z,100738.75
2022-09-14T08:51:43.025Z,100737.72
2022-09-14T08:54:11.060Z,100730.81
2022-09-14T08:56:40.934Z,100724.28
2022-09-14T08:59:24.805Z,100718.69
2022-09-14T09:02:02.064Z,100723.63
2022-09-14T09:04:34.513Z,100723.19
2022-09-14T09:07:04.140Z,100727.03
2022-09-14T09:09:38.158Z,100709.41
2022-09-14T09:12:06.101Z,100713.97
2022-09-14T09:14:36.244Z,100716.56
2022-09-14T09:17:11.283Z,100718.09
2022-09-14T09:19:42.770Z,100713.75
2022-09-14T09:22:13.291Z,100707.25
2022-09-14T09:24:42.835Z,100709.50
2022-09-14T09:27:11.192Z,100711.59
2022-09-14T09:29:38.775Z,100712.34
2022-09-14T09:32:15.346Z,100720.22
2022-09-14T09:35:05.506Z,100711.66
2022-09-14T09:37:56.768Z,100719.84
2022-09-14T09:40:27.796Z,100718.19
2022-09-14T09:43:06.232Z,100712.03
2022-09-14T09:45:47.673Z,100713.25
2022-09-14T09:48:17.393Z,100704.94
2022-09-14T09:50:48.723Z,100709.69
2022-09-14T09:53:17.176Z,100702.28
2022-09-14T09:55:48.317Z,100703.53
2022-09-14T09:58:23.746Z,100701.56
2022-09-14T10:00:58.180Z,100702.50
2022-09-14T10:03:34.695Z,100696.44
2022-09-14T10:06:03.460Z,100706.72
2022-09-14T10:08:34.721Z,100703.03
2022-09-14T10:11:03.576Z,100702.25
2022-09-14T10:13:36.443Z,100699.78
2022-09-14T10:16:06.843Z,100696.94
2022-09-14T10:18:36.328Z,100688.72
2022-09-14T10:21:09.060Z,100690.34
2022-09-14T10:23:37.443Z,100697.22
2022-09-14T10:26:28.691Z,100696.00
2022-09-14T10:29:16.201Z,100690.63
2022-09-14T10:31:44.319Z,100692.66
2022-09-14T10:34:19.441Z,100685.31
2022-09-14T10:36:51.215Z,100696.69
2022-09-14T10:39:25.870Z,100690.16
2022-09-14T10:41:57.646Z,100693.34
2022-09-14T10:44:29.521Z,100695.72
2022-09-14T10:47:06.541Z,100693.22
2022-09-14T10:49:47.976Z,100682.56
2022-09-14T10:52:20.349Z,100674.31
2022-09-14T10:55:00.643Z,100677.41
2022-09-14T10:57:31.906Z,100673.59
2022-09-14T11:00:05.266Z,100667.84
2022-09-14T11:02:51.546Z,100665.69
2022-09-14T11:05:23.631Z,100664.41
2022-09-14T11:08:01.732Z,100662.31
2022-09-14T11:10:31.997Z,100661.44
2022-09-14T11:13:19.962Z,100662.59
2022-09-14T11:15:54.033Z,100663.19
2022-09-14T11:18:24.612Z,100673.69
2022-09-14T11:21:01.726Z,100672.72
2022-09-14T11:23:35.077Z,100672.09
2022-09-14T11:26:04.800Z,100670.22
2022-09-14T11:28:35.221Z,100665.81
2022-09-14T11:31:05.743Z,100673.63
2022-09-14T11:33:37.091Z,100677.34
2022-09-14T11:36:09.242Z,100675.66
2022-09-14T11:38:37.682Z,100674.44
2022-09-14T11:41:11.997Z,100678.13
2022-09-14T11:43:43.618Z,100675.25
2022-09-14T11:46:13.067Z,100668.34
2022-09-14T11:48:43.641Z,100672.44
2022-09-14T11:51:15.295Z,100672.00
2022-09-14T11:53:43.351Z,100675.59
2022-09-14T11:56:23.720Z,100671.50
2022-09-14T11:58:51.551Z,100675.94
2022-09-14T12:01:27.013Z,100669.00
2022-09-14T12:04:09.598Z,100675.06
2022-09-14T12:06:49.571Z,100674.16
2022-09-14T12:09:50.229Z,100671.28
2022-09-14T12:12:35.613Z,100667.31
2022-09-14T12:15:04.238Z,100664.53
2022-09-14T12:17:40.226Z,100665.78
2022-09-14T12:20:22.845Z,100668.25
2022-09-14T12:22:51.756Z,100667.88
2022-09-14T12:25:20.722Z,100662.63
2022-09-14T12:27:49.133Z,100666.69
2022-09-14T12:30:40.416Z,100660.16
2022-09-14T12:33:28.368Z,100670.78
2022-09-14T12:35:55.840Z,100659.34
2022-09-14T12:38:44.220Z,100663.44
2022-09-14T12:41:32.612Z,100665.47
2022-09-14T12:44:00.147Z,100668.31
2022-09-14T12:46:40.769Z,100658.53
2022-09-14T12:49:27.113Z,100666.72
2022-09-14T12:51:55.078Z,100668.72
2022-09-14T12:54:26.836Z,100670.38
2022-09-14T12:56:59.932Z,100669.97
2022-09-14T12:59:33.279Z,100658.53
2022-09-14T13:02:12.514Z,100650.31
2022-09-14T13:04:40.785Z,100658.09
2022-09-14T13:07:14.264Z,100641.75
2022-09-14T13:09:47.961Z,100649.13
2022-09-14T13:12:16.379Z,100647.09
2022-09-14T13:14:47.908Z,100651.16
2022-09-14T13:17:16.937Z,100643.78
2022-09-14T13:19:44.566Z,100635.59
2022-09-14T13:22:18.780Z,100631.53
2022-09-14T13:24:48.953Z,100638.47
2022-09-14T13:27:21.653Z,100628.28
2022-09-14T13:29:49.465Z,100639.31
2022-09-14T13:32:20.262Z,100640.53
2022-09-14T13:34:48.203Z,100641.78
2022-09-14T13:37:16.340Z,100643.03
2022-09-14T13:39:50.786Z,100635.63
2022-09-14T13:42:19.980Z,100631.09
2022-09-14T13:44:49.682Z,100636.78
2022-09-14T13:47:18.230Z,100632.25
2022-09-14T13:49:46.689Z,100629.34
2022-09-14T13:52:43.017Z,100629.31
2022-09-14T13:55:20.061Z,100620.72
2022-09-14T13:58:06.875Z,100617.84
2022-09-14T14:00:35.150Z,100616.63
2022-09-14T14:03:03.454Z,100619.84
2022-09-14T14:05:32.297Z,100625.50
2022-09-14T14:08:01.191Z,100614.91
2022-09-14T14:10:31.770Z,100617.34
2022-09-14T14:13:00.211Z,100615.72
2022-09-14T14:15:42.882Z,100602.69
2022-09-14T14:18:28.105Z,100610.84
2022-09-14T14:21:05.157Z,100610.03
2022-09-14T14:23:32.780Z,100604.34
2022-09-14T14:26:08.108Z,100607.56
2022-09-14T14:28:35.873Z,100603.50
2022-09-14T14:31:08.793Z,100599.41
2022-09-14T14:33:37.394Z,100597.34
2022-09-14T14:36:09.869Z,100602.56
2022-09-14T14:38:37.422Z,100598.44
2022-09-14T14:41:05.630Z,100601.22
2022-09-14T14:43:33.276Z,100601.97
2022-09-14T14:46:01.803Z,100601.53
2022-09-14T14:48:31.467Z,100591.66
2022-09-14T14:50:58.962Z,100594.03
2022-09-14T14:53:26.780Z,100598.06
2022-09-14T14:55:54.435Z,100600.06
2022-09-14T15:00:40.937Z,100602.41
2022-09-14T15:03:08.529Z,100595.31
2022-09-14T15:05:36.279Z,100588.28
2022-09-14T15:08:03.973Z,100592.66
2022-09-14T15:10:31.554Z,100599.53
2022-09-14T15:12:59.098Z,100590.91
2022-09-14T15:15:27.341Z,100589.66
2022-09-14T15:17:56.245Z,100588.84
2022-09-14T15:20:24.224Z,100585.91
2022-09-14T15:22:52.005Z,100586.19
2022-09-14T15:25:20.755Z,100584.94
2022-09-14T15:27:48.551Z,100578.81
2022-09-14T15:30:16.080Z,100574.75
2022-09-14T15:32:43.914Z,100584.06
2022-09-14T15:35:13.682Z,100583.28
2022-09-14T15:37:41.325Z,100576.34
2022-09-14T15:40:09.456Z,100574.63
2022-09-14T15:42:37.049Z,100576.59
2022-09-14T15:45:05.021Z,100581.00
2022-09-14T15:47:36.246Z,100580.50
2022-09-14T15:50:04.907Z,100580.34
2022-09-14T15:52:35.938Z,100576.09
2022-09-14T15:55:03.845Z,100570.28
2022-09-14T15:57:31.409Z,100571.75
2022-09-14T15:59:58.918Z,100569.16
2022-09-14T16:02:26.608Z,100569.91
2022-09-14T16:04:54.183Z,100579.50
2022-09-14T16:07:21.700Z,100569.25
2022-09-14T16:09:50.609Z,100575.25
2022-09-14T16:12:18.152Z,100574.31
2022-09-14T16:14:45.697Z,100574.22
2022-09-14T16:17:13.218Z,100575.66
2022-09-14T16:19:40.719Z,100577.50
2022-09-14T16:22:08.286Z,100579.38
2022-09-14T16:24:37.211Z,100583.66
2022-09-14T16:27:06.170Z,100581.88
2022-09-14T16:29:33.659Z,100578.44
2022-09-14T16:32:01.245Z,100585.66
2022-09-14T16:34:30.079Z,100587.53
2022-09-14T16:36:58.707Z,100592.66
2022-09-14T16:39:28.491Z,100587.25
2022-09-14T16:41:57.196Z,100596.41
2022-09-14T16:44:26.815Z,100593.88
2022-09-14T16:46:55.272Z,100592.56
2022-09-14T16:49:27.214Z,100598.53
2022-09-14T16:51:55.335Z,100596.34
2022-09-14T16:54:24.318Z,100588.53
2022-09-14T16:56:51.840Z,100594.44
2022-09-14T16:59:20.514Z,100592.34
2022-09-14T17:01:54.278Z,100587.44
2022-09-14T17:04:22.675Z,100605.16
2022-09-14T17:06:51.548Z,100599.81
2022-09-14T17:09:20.402Z,100606.59
2022-09-14T17:11:48.449Z,100596.34
2022-09-14T17:14:16.924Z,100604.69
2022-09-14T17:16:44.867Z,100598.88
2022-09-14T17:19:14.063Z,100599.50
2022-09-14T17:21:42.465Z,100598.50
2022-09-14T17:24:10.467Z,100593.88
2022-09-14T17:26:38.386Z,100599.34
2022-09-14T17:29:06.569Z,100600.81
2022-09-14T17:31:35.381Z,100595.91
2022-09-14T17:34:04.217Z,100601.03
2022-09-14T17:36:33.482Z,100600.44
2022-09-14T17:39:02.799Z,100600.28
2022-09-14T17:41:32.428Z,100608.56
2022-09-14T17:44:01.240Z,100607.91
2022-09-14T17:46:29.389Z,100605.38
2022-09-14T17:48:57.940Z,100601.50
2022-09-14T17:51:26.879Z,100600.94
2022-09-14T17:53:57.155Z,100603.59
2022-09-14T17:56:25.938Z,100597.38
2022-09-14T17:58:58.805Z,100606.84
2022-09-14T18:01:26.349Z,100599.72
2022-09-14T18:03:54.930Z,100600.69
2022-09-14T18:06:23.738Z,100602.81
2022-09-14T18:08:54.318Z,100600.97
2022-09-14T18:11:23.824Z,100606.38
2022-09-14T18:13:51.660Z,100607.38
2022-09-14T18:16:19.953Z,100608.78
2022-09-14T18:18:47.711Z,100609.03
2022-09-14T18:21:16.897Z,100612.13
2022-09-14T18:23:44.646Z,100610.38
2022-09-14T18:26:12.210Z,100615.06
2022-09-14T18:28:41.188Z,100612.13
2022-09-14T18:31:10.047Z,100615.31
2022-09-14T18:33:37.956Z,100612.41
2022-09-14T18:36:06.161Z,100614.75
2022-09-14T18:38:33.945Z,100617.56
2022-09-14T18:41:03.981Z,100615.94
2022-09-14T18:43:31.553Z,100627.56
2022-09-14T18:46:00.984Z,100632.75
2022-09-14T18:48:28.472Z,100633.47
2022-09-14T18:50:56.187Z,100634.16
2022-09-14T18:53:23.666Z,100637.22
2022-09-14T18:55:51.199Z,100637.13
2022-09-14T18:58:18.742Z,100639.81
2022-09-14T19:00:46.640Z,100635.69
2022-09-14T19:03:15.587Z,100635.22
2022-09-14T19:05:43.118Z,100639.22
2022-09-14T19:08:13.477Z,100644.41
2022-09-14T19:10:41.259Z,100641.06
2022-09-14T19:13:08.764Z,100642.75
2022-09-14T19:15:38.880Z,100645.56
2022-09-14T19:18:06.630Z,100648.03
2022-09-14T19:21:04.855Z,100650.03
2022-09-14T19:23:26.317Z,100646.03
2022-09-14T19:25:53.772Z,100647.69
2022-09-14T19:28:21.312Z,100646.50
2022-09-14T19:30:50.012Z,100644.50
2022-09-14T19:33:17.664Z,100646.16
2022-09-14T19:35:46.582Z,100657.09
2022-09-14T19:38:14.107Z,100647.81
2022-09-14T19:40:50.824Z,100650.28
2022-09-14T19:43:18.369Z,100657.56
2022-09-14T19:45:45.980Z,100650.28
2022-09-14T19:48:13.651Z,100662.41
2022-09-14T19:50:41.472Z,100663.22
2022-09-14T19:53:10.721Z,100657.56
2022-09-14T19:55:38.218Z,100656.41
2022-09-14T19:58:05.721Z,100658.88
2022-09-14T20:00:34.012Z,100663.44
2022-09-14T20:03:01.576Z,100652.97
2022-09-14T20:05:29.137Z,100654.63
2022-09-14T20:07:56.678Z,100646.50
2022-09-14T20:10:26.608Z,100654.06
2022-09-14T20:12:54.385Z,100647.81
2022-09-14T20:15:21.886Z,100651.34
2022-09-14T20:17:49.402Z,100651.22
2022-09-14T20:20:17.224Z,100651.41
2022-09-14T20:22:44.696Z,100657.78
2022-09-14T20:25:12.248Z,100664.13
2022-09-14T20:27:41.105Z,100650.22
2022-09-14T20:30:09.628Z,100653.28
2022-09-14T20:32:37.101Z,100656.69
2022-09-14T20:35:04.810Z,100654.91
2022-09-14T20:37:32.289Z,100654.31
2022-09-14T20:39:59.850Z,100655.81
2022-09-14T20:42:27.444Z,100664.16
2022-09-14T20:44:56.240Z,100660.50
2022-09-14T20:47:24.568Z,100667.69
2022-09-14T20:49:52.162Z,100653.81
2022-09-14T20:52:20.538Z,100661.78
2022-09-14T20:54:48.048Z,100657.66
2022-09-14T20:57:15.563Z,100665.66
2022-09-14T20:59:43.083Z,100664.69
2022-09-14T21:02:12.024Z,100665.38
2022-09-14T21:04:39.581Z,100660.47
2022-09-14T21:07:07.125Z,100658.34
2022-09-14T21:09:35.795Z,100657.84
2022-09-14T21:12:03.551Z,100659.38
2022-09-14T21:14:31.179Z,100663.22
2022-09-14T21:16:58.681Z,100661.44
2022-09-14T21:19:28.681Z,100660.50
2022-09-14T21:21:56.200Z,100662.00
2022-09-14T21:24:23.776Z,100661.38
2022-09-14T21:26:51.369Z,100652.78
2022-09-14T21:29:22.805Z,100659.41
2022-09-14T21:31:51.137Z,100658.50
2022-09-14T21:34:18.696Z,100657.19
2022-09-14T21:36:48.978Z,100657.53
2022-09-14T21:39:19.175Z,100661.03
2022-09-14T21:41:46.707Z,100668.97
2022-09-14T21:44:14.406Z,100669.66
2022-09-14T21:46:42.438Z,100663.91
2022-09-14T21:49:12.550Z,100665.44
2022-09-14T21:51:40.048Z,100668.59
2022-09-14T21:54:10.162Z,100664.47
2022-09-14T21:56:38.898Z,100667.13
2022-09-14T21:59:08.361Z,100673.09
2022-09-14T22:01:35.936Z,100672.63
2022-09-14T22:04:03.792Z,100679.91
2022-09-14T22:06:32.458Z,100674.59
2022-09-14T22:09:01.049Z,100678.25
2022-09-14T22:11:31.119Z,100680.25
2022-09-14T22:13:59.196Z,100677.41
2022-09-14T22:16:27.523Z,100685.38
2022-09-14T22:18:57.522Z,100683.25
2022-09-14T22:21:27.091Z,100678.66
2022-09-14T22:23:55.384Z,100682.97
2022-09-14T22:26:23.375Z,100678.03
2022-09-14T22:28:53.581Z,100683.50
2022-09-14T22:31:22.239Z,100689.97
2022-09-14T22:33:50.328Z,100686.66
2022-09-14T22:36:18.179Z,100686.16
2022-09-14T22:38:46.456Z,100691.47
2022-09-14T22:41:14.816Z,100705.50
2022-09-14T22:43:42.660Z,100713.06
2022-09-14T22:46:11.699Z,100714.38
2022-09-14T22:48:39.693Z,100713.88
2022-09-14T22:51:08.020Z,100707.97
2022-09-14T22:53:35.492Z,100716.28
2022-09-14T22:56:07.803Z,100707.53
2022-09-14T22:58:35.271Z,100710.19
2022-09-14T23:01:06.350Z,100702.78
2022-09-14T23:03:35.257Z,100703.47
2022-09-14T23:06:03.125Z,100706.94
2022-09-14T23:08:30.863Z,100712.75
2022-09-14T23:10:58.421Z,100709.78
2022-09-14T23:13:26.214Z,100713.78
2022-09-14T23:15:53.709Z,100710.13
2022-09-14T23:18:21.213Z,100707.31
2022-09-14T23:20:50.093Z,100714.59
2022-09-14T23:23:17.585Z,100716.25
2022-09-14T23:25:45.103Z,100719.56
2022-09-14T23:28:12.997Z,100717.72
2022-09-14T23:30:40.719Z,100716.72
2022-09-14T23:33:08.363Z,100717.19
2022-09-14T23:35:37.929Z,100715.69
2022-09-14T23:38:06.917Z,100715.81
2022-09-14T23:40:34.481Z,100733.34
2022-09-14T23:43:01.941Z,100725.06
2022-09-14T23:45:29.434Z,100719.91
2022-09-14T23:47:57.196Z,100721.56
2022-09-14T23:50:25.712Z,100714.28
2022-09-14T23:52:57.263Z,100719.09
2022-09-14T23:55:26.229Z,100725.22
2022-09-14T23:57:54.073Z,100716.75
